KGCK/GCK METAR and TAF weather

Enter ICAO airport designator
Station Type Date Time Source
KGCK METAR 2020/04/09 19:54 UTC NOAA

KGCK 091954Z 05006KT 10SM BKN060 14/M02 A3013 RMK AO2 SLP196 T01441022


Station Type Date Time Source
KGCK Decoded METAR 2020/04/09 19:54 UTC NOAA

GARDEN CITY REGIONAL AIRPORT, KS, United States (KGCK) 37-55N 100-43W 877M
Apr 09, 2020 - 03:54 PM EDT / 2020.04.09 1954 UTC
Wind: from the NE (050 degrees) at 7 MPH (6 KT):0
Visibility: 10 mile(s):0
Sky conditions: mostly cloudy
Temperature: 57.9 F (14.4 C)
Dew Point: 28.0 F (-2.2 C)
Relative Humidity: 31%
Pressure (altimeter): 30.13 in. Hg (1020 hPa)
ob: KGCK 091954Z 05006KT 10SM BKN060 14/M02 A3013 RMK AO2 SLP196 T01441022
cycle: 20

Station Type Date Time Source
KGCK TAF 2020/04/09 18:22 UTC NOAA

TAF KGCK 091720Z 0918/1018 04009KT P6SM BKN100
FM101400 14012KT P6SM SCT060
FM101600 16014G23KT P6SM SCT080

Example: see airport list